createdAt,value
2019-05-19T00:01:48.890Z,7.33
2019-05-19T00:04:20.480Z,11.67
2019-05-19T00:06:51.859Z,10.87
2019-05-19T00:09:23.033Z,10.17
2019-05-19T00:11:56.336Z,6.30
2019-05-19T00:14:29.068Z,8.27
2019-05-19T00:17:00.454Z,7.17
2019-05-19T00:19:31.594Z,9.73
2019-05-19T00:22:03.049Z,8.13
2019-05-19T00:24:35.542Z,6.90
2019-05-19T00:27:06.889Z,6.73
2019-05-19T00:29:38.016Z,6.83
2019-05-19T00:32:11.820Z,6.77
2019-05-19T00:34:44.461Z,5.50
2019-05-19T00:37:15.330Z,6.50
2019-05-19T00:39:46.154Z,6.00
2019-05-19T00:42:17.103Z,6.00
2019-05-19T00:44:48.146Z,5.50
2019-05-19T00:47:20.778Z,5.43
2019-05-19T00:49:52.142Z,4.90
2019-05-19T00:52:23.002Z,5.73
2019-05-19T00:54:53.854Z,5.67
2019-05-19T00:57:25.669Z,5.57
2019-05-19T00:59:57.423Z,5.83
2019-05-19T01:02:29.518Z,5.57
2019-05-19T01:05:00.457Z,5.40
2019-05-19T01:07:31.394Z,4.80
2019-05-19T01:10:02.196Z,4.60
2019-05-19T01:12:34.476Z,5.37
2019-05-19T01:15:07.645Z,4.57
2019-05-19T01:17:38.527Z,4.80
2019-05-19T01:20:09.819Z,4.33
2019-05-19T01:22:42.287Z,5.10
2019-05-19T01:25:13.493Z,4.87
2019-05-19T01:27:44.463Z,4.60
2019-05-19T01:30:17.068Z,4.77
2019-05-19T01:32:48.110Z,5.10
2019-05-19T01:35:19.192Z,4.70
2019-05-19T01:37:50.056Z,4.83
2019-05-19T01:40:20.957Z,4.97
2019-05-19T01:42:53.045Z,4.67
2019-05-19T01:45:24.333Z,4.47
2019-05-19T01:47:55.516Z,4.43
2019-05-19T01:50:26.554Z,4.80
2019-05-19T01:52:57.436Z,5.03
2019-05-19T01:55:28.228Z,4.77
2019-05-19T01:57:59.265Z,5.13
2019-05-19T02:00:31.266Z,5.07
2019-05-19T02:03:02.000Z,4.70
2019-05-19T02:05:32.898Z,4.70
2019-05-19T02:08:03.835Z,5.23
2019-05-19T02:10:35.866Z,4.87
2019-05-19T02:13:06.649Z,4.93
2019-05-19T02:15:37.774Z,4.70
2019-05-19T02:18:08.516Z,5.10
2019-05-19T02:20:40.777Z,4.27
2019-05-19T02:23:11.653Z,4.97
2019-05-19T02:25:43.579Z,4.93
2019-05-19T02:28:14.510Z,4.97
2019-05-19T02:30:49.601Z,4.73
2019-05-19T02:33:20.545Z,4.80
2019-05-19T02:35:51.419Z,4.63
2019-05-19T02:38:22.194Z,4.70
2019-05-19T02:40:56.590Z,5.50
2019-05-19T02:43:28.538Z,5.20
2019-05-19T02:46:00.955Z,5.47
2019-05-19T02:48:33.586Z,6.47
2019-05-19T02:51:05.320Z,6.03
2019-05-19T02:53:36.589Z,5.73
2019-05-19T02:56:08.754Z,6.30
2019-05-19T02:58:40.248Z,5.80
2019-05-19T03:01:11.208Z,5.63
2019-05-19T03:03:41.975Z,6.23
2019-05-19T03:06:12.856Z,6.23
2019-05-19T03:08:43.611Z,6.27
2019-05-19T03:11:15.651Z,7.03
2019-05-19T03:13:46.525Z,6.40
2019-05-19T03:16:17.457Z,6.43
2019-05-19T03:18:49.347Z,5.90
2019-05-19T03:21:21.721Z,6.60
2019-05-19T03:23:52.658Z,6.23
2019-05-19T03:26:23.592Z,7.17
2019-05-19T03:28:55.144Z,7.23
2019-05-19T03:31:45.355Z,6.87
2019-05-19T03:34:16.267Z,7.20
2019-05-19T03:36:47.209Z,7.93
2019-05-19T03:39:18.144Z,8.70
2019-05-19T03:41:48.980Z,7.93
2019-05-19T03:44:19.783Z,8.40
2019-05-19T03:46:50.700Z,8.13
2019-05-19T03:49:22.587Z,8.93
2019-05-19T03:51:53.978Z,9.73
2019-05-19T03:54:24.898Z,12.43
2019-05-19T03:56:55.731Z,11.73
2019-05-19T03:59:27.798Z,13.30
2019-05-19T04:01:58.736Z,13.03
2019-05-19T04:04:29.570Z,10.40
2019-05-19T04:07:00.612Z,12.30
2019-05-19T04:09:31.553Z,12.50
2019-05-19T04:12:02.490Z,13.03
2019-05-19T04:14:34.221Z,12.70
2019-05-19T04:17:05.065Z,12.50
2019-05-19T04:19:35.836Z,11.90
2019-05-19T04:22:06.720Z,11.93
2019-05-19T04:24:40.654Z,13.23
2019-05-19T04:27:11.452Z,10.90
2019-05-19T04:29:42.332Z,11.40
2019-05-19T04:32:13.071Z,11.23
2019-05-19T04:34:44.101Z,11.33
2019-05-19T04:37:16.653Z,12.37
2019-05-19T04:39:47.647Z,11.03
2019-05-19T04:42:19.540Z,10.77
2019-05-19T04:44:50.411Z,11.03
2019-05-19T04:47:21.351Z,11.60
2019-05-19T04:49:52.397Z,11.60
2019-05-19T04:52:23.126Z,11.13
2019-05-19T04:54:54.204Z,10.73
2019-05-19T04:57:26.534Z,10.70
2019-05-19T04:59:57.473Z,10.58
2019-05-19T05:02:28.409Z,11.28
2019-05-19T05:04:59.447Z,9.87
2019-05-19T05:07:30.181Z,11.27
2019-05-19T05:10:01.065Z,12.13
2019-05-19T05:12:31.852Z,10.30
2019-05-19T05:15:02.792Z,12.00
2019-05-19T05:17:35.057Z,12.03
2019-05-19T05:20:07.089Z,10.95
2019-05-19T05:22:37.933Z,11.35
2019-05-19T05:25:09.719Z,10.23
2019-05-19T05:27:40.657Z,11.43
2019-05-19T05:30:12.009Z,11.10
2019-05-19T05:32:44.276Z,11.43
2019-05-19T05:35:15.413Z,10.95
2019-05-19T05:37:46.323Z,11.28
2019-05-19T05:40:18.211Z,11.57
2019-05-19T05:42:50.580Z,11.18
2019-05-19T05:45:22.379Z,11.70
2019-05-19T05:47:53.173Z,10.95
2019-05-19T05:50:23.939Z,10.93
2019-05-19T05:52:56.349Z,10.55
2019-05-19T05:55:27.158Z,11.18
2019-05-19T05:57:58.051Z,10.30
2019-05-19T06:00:28.993Z,10.98
2019-05-19T06:03:01.415Z,10.00
2019-05-19T06:05:32.405Z,11.35
2019-05-19T06:08:03.342Z,10.68
2019-05-19T06:10:35.302Z,10.53
2019-05-19T06:13:06.021Z,11.03
2019-05-19T06:15:36.981Z,9.73
2019-05-19T06:18:07.914Z,10.50
2019-05-19T06:20:38.747Z,10.45
2019-05-19T06:23:09.493Z,9.83
2019-05-19T06:25:40.391Z,9.10
2019-05-19T06:28:11.161Z,9.50
2019-05-19T06:30:42.499Z,8.83
2019-05-19T06:33:14.937Z,10.43
2019-05-19T06:35:45.781Z,10.03
2019-05-19T06:38:16.747Z,10.20
2019-05-19T06:40:47.687Z,9.40
2019-05-19T06:43:19.511Z,10.93
2019-05-19T06:45:50.403Z,8.88
2019-05-19T06:48:21.375Z,9.48
2019-05-19T06:50:54.948Z,9.35
2019-05-19T06:53:26.059Z,9.03
2019-05-19T06:55:57.039Z,8.95
2019-05-19T06:58:27.729Z,9.55
2019-05-19T07:00:59.208Z,9.48
2019-05-19T07:03:31.666Z,9.45
2019-05-19T07:06:02.573Z,8.93
2019-05-19T07:08:33.531Z,10.23
2019-05-19T07:11:04.497Z,8.58
2019-05-19T07:13:35.614Z,8.88
2019-05-19T07:16:06.523Z,9.53
2019-05-19T07:18:37.362Z,9.43
2019-05-19T07:21:08.292Z,8.68
2019-05-19T07:23:39.129Z,9.30
2019-05-19T07:26:10.058Z,9.63
2019-05-19T07:28:40.915Z,9.98
2019-05-19T07:31:11.766Z,8.98
2019-05-19T07:33:43.733Z,8.90
2019-05-19T07:36:14.771Z,8.98
2019-05-19T07:38:45.664Z,9.88
2019-05-19T07:41:16.522Z,9.03
2019-05-19T07:43:48.544Z,8.98
2019-05-19T07:46:19.649Z,9.08
2019-05-19T07:48:50.609Z,8.38
2019-05-19T07:51:22.664Z,9.05
2019-05-19T07:53:53.591Z,9.15
2019-05-19T07:56:24.524Z,8.25
2019-05-19T07:58:55.582Z,8.70
2019-05-19T08:01:28.069Z,8.40
2019-05-19T08:04:00.478Z,8.88
2019-05-19T08:06:31.451Z,8.43
2019-05-19T08:09:02.776Z,8.50
2019-05-19T08:11:33.942Z,8.43
2019-05-19T08:14:05.882Z,7.47
2019-05-19T08:16:37.852Z,7.75
2019-05-19T08:19:08.601Z,8.23
2019-05-19T08:21:39.584Z,7.30
2019-05-19T08:24:10.686Z,7.30
2019-05-19T08:26:41.623Z,7.00
2019-05-19T08:29:13.392Z,6.62
2019-05-19T08:31:44.268Z,7.05
2019-05-19T08:34:16.278Z,6.42
2019-05-19T08:36:47.316Z,7.37
2019-05-19T08:39:18.201Z,6.45
2019-05-19T08:41:49.089Z,7.10
2019-05-19T08:44:21.267Z,6.30
2019-05-19T08:46:52.304Z,6.55
2019-05-19T08:49:23.234Z,6.40
2019-05-19T08:51:54.171Z,5.55
2019-05-19T08:54:26.545Z,5.53
2019-05-19T08:56:57.484Z,5.20
2019-05-19T08:59:28.251Z,5.50
2019-05-19T09:01:59.059Z,5.62
2019-05-19T09:04:31.323Z,5.72
2019-05-19T09:07:02.261Z,5.35
2019-05-19T09:09:33.506Z,5.53
2019-05-19T09:12:04.444Z,5.70
2019-05-19T09:14:36.721Z,5.65
2019-05-19T09:17:07.572Z,5.25
2019-05-19T09:19:38.359Z,4.85
2019-05-19T09:22:09.236Z,4.45
2019-05-19T09:24:41.385Z,4.10
2019-05-19T09:27:12.322Z,4.80
2019-05-19T09:29:44.755Z,4.50
2019-05-19T09:32:16.729Z,4.62
2019-05-19T09:34:49.115Z,4.17
2019-05-19T09:37:20.071Z,3.92
2019-05-19T09:39:50.882Z,3.30
2019-05-19T09:42:21.760Z,3.50
2019-05-19T09:44:53.754Z,3.98
2019-05-19T09:47:25.564Z,3.90
2019-05-19T09:49:56.289Z,4.22
2019-05-19T09:52:27.212Z,4.10
2019-05-19T09:54:58.174Z,4.10
2019-05-19T09:57:29.006Z,3.90
2019-05-19T09:59:59.967Z,3.70
2019-05-19T10:02:30.882Z,3.80
2019-05-19T10:05:01.827Z,3.95
2019-05-19T10:07:32.762Z,4.08
2019-05-19T10:10:05.955Z,3.75
2019-05-19T10:12:36.740Z,4.05
2019-05-19T10:15:08.279Z,4.00
2019-05-19T10:17:39.176Z,4.12
2019-05-19T10:20:11.628Z,3.20
2019-05-19T10:22:42.458Z,3.77
2019-05-19T10:25:23.050Z,4.05
2019-05-19T10:27:47.145Z,4.20
2019-05-19T10:30:18.426Z,3.60
2019-05-19T10:32:49.313Z,3.65
2019-05-19T10:35:20.176Z,4.00
2019-05-19T10:37:51.038Z,4.00
2019-05-19T10:40:21.923Z,4.10
2019-05-19T10:42:52.854Z,3.83
2019-05-19T10:45:24.581Z,3.40
2019-05-19T10:47:55.372Z,3.35
2019-05-19T10:50:26.335Z,4.28
2019-05-19T10:52:57.220Z,3.50
2019-05-19T10:55:36.106Z,3.25
2019-05-19T10:58:00.687Z,3.80
2019-05-19T11:00:31.573Z,3.52
2019-05-19T11:03:02.531Z,3.47
2019-05-19T11:05:33.809Z,3.25
2019-05-19T11:08:05.602Z,3.87
2019-05-19T11:10:36.950Z,3.85
2019-05-19T11:13:11.128Z,3.30
2019-05-19T11:15:42.490Z,3.85
2019-05-19T11:18:15.083Z,3.70
2019-05-19T11:20:46.431Z,4.00
2019-05-19T11:23:18.602Z,3.40
2019-05-19T11:25:51.752Z,3.35
2019-05-19T11:28:22.608Z,3.70
2019-05-19T11:30:53.705Z,3.67
2019-05-19T11:33:27.391Z,3.33
2019-05-19T11:35:58.548Z,3.65
2019-05-19T11:38:29.979Z,3.92
2019-05-19T11:41:00.982Z,3.72
2019-05-19T11:43:32.336Z,3.65
2019-05-19T11:46:04.612Z,3.70
2019-05-19T11:48:36.458Z,3.27
2019-05-19T11:51:07.702Z,3.15
2019-05-19T11:53:39.269Z,3.37
2019-05-19T11:56:11.530Z,3.27
2019-05-19T11:58:43.366Z,3.30
2019-05-19T12:01:14.675Z,3.75
2019-05-19T12:03:46.289Z,3.30
2019-05-19T12:06:18.927Z,3.08
2019-05-19T12:08:50.354Z,3.70
2019-05-19T12:11:21.557Z,3.10
2019-05-19T12:13:53.142Z,3.90
2019-05-19T12:16:24.748Z,3.30
2019-05-19T12:18:57.596Z,3.10
2019-05-19T12:21:28.944Z,3.47
2019-05-19T12:24:01.213Z,3.45
2019-05-19T12:26:34.776Z,3.50
2019-05-19T12:29:05.326Z,3.50
2019-05-19T12:31:37.344Z,3.27
2019-05-19T12:34:09.045Z,3.40
2019-05-19T12:36:40.242Z,3.40
2019-05-19T12:39:11.561Z,3.52
2019-05-19T12:41:44.445Z,3.05
2019-05-19T12:44:16.380Z,3.45
2019-05-19T12:46:47.736Z,3.55
2019-05-19T12:49:19.340Z,3.62
2019-05-19T12:51:53.496Z,3.15
2019-05-19T12:54:24.884Z,3.10
2019-05-19T12:56:56.205Z,3.35
2019-05-19T12:59:27.462Z,3.22
2019-05-19T13:02:00.263Z,3.30
2019-05-19T13:04:31.361Z,3.50
2019-05-19T13:07:02.726Z,3.60
2019-05-19T13:09:34.006Z,3.77
2019-05-19T13:12:06.596Z,3.60
2019-05-19T13:14:37.711Z,4.05
2019-05-19T13:17:09.183Z,3.62
2019-05-19T13:19:40.312Z,3.77
2019-05-19T13:22:14.479Z,3.83
2019-05-19T13:24:45.736Z,2.98
2019-05-19T13:27:17.072Z,3.25
2019-05-19T13:29:48.717Z,3.60
2019-05-19T13:32:19.976Z,3.10
2019-05-19T13:34:51.419Z,3.20
2019-05-19T13:37:25.644Z,3.58
2019-05-19T13:39:56.986Z,3.75
2019-05-19T13:42:28.454Z,3.67
2019-05-19T13:44:59.847Z,3.40
2019-05-19T13:47:32.152Z,3.35
2019-05-19T13:50:03.820Z,3.20
2019-05-19T13:52:35.015Z,3.40
2019-05-19T13:55:09.388Z,3.70
2019-05-19T13:57:40.202Z,3.30
2019-05-19T14:00:14.423Z,3.42
2019-05-19T14:02:45.425Z,3.58
2019-05-19T14:05:17.734Z,3.92
2019-05-19T14:07:49.057Z,3.67
2019-05-19T14:10:20.323Z,3.30
2019-05-19T14:12:51.810Z,4.03
2019-05-19T14:15:24.144Z,3.70
2019-05-19T14:17:56.081Z,3.50
2019-05-19T14:20:28.822Z,3.72
2019-05-19T14:23:00.241Z,3.87
2019-05-19T14:25:32.722Z,3.60
2019-05-19T14:28:03.759Z,3.77
2019-05-19T14:30:35.073Z,3.72
2019-05-19T14:33:06.426Z,3.95
2019-05-19T14:35:39.051Z,3.95
2019-05-19T14:38:10.278Z,3.80
2019-05-19T14:40:41.716Z,3.40
2019-05-19T14:43:12.859Z,3.70
2019-05-19T14:45:45.565Z,3.90
2019-05-19T14:48:16.782Z,4.20
2019-05-19T14:50:48.156Z,4.00
2019-05-19T14:53:19.478Z,3.70
2019-05-19T14:55:53.007Z,4.08
2019-05-19T14:58:24.368Z,3.70
2019-05-19T15:00:55.771Z,4.30
2019-05-19T15:03:26.984Z,4.25
2019-05-19T15:06:00.170Z,3.77
2019-05-19T15:08:31.849Z,4.22
2019-05-19T15:11:03.301Z,4.10
2019-05-19T15:13:34.453Z,4.47
2019-05-19T15:16:05.680Z,4.67
2019-05-19T15:18:37.852Z,4.50
2019-05-19T15:21:10.770Z,4.50
2019-05-19T15:23:42.146Z,4.25
2019-05-19T15:26:13.251Z,4.15
2019-05-19T15:28:44.078Z,3.92
2019-05-19T15:31:15.391Z,3.40
2019-05-19T15:33:48.430Z,4.12
2019-05-19T15:36:19.795Z,3.67
2019-05-19T15:38:50.812Z,3.85
2019-05-19T15:41:22.434Z,3.70
2019-05-19T15:43:53.731Z,3.40
2019-05-19T15:46:25.199Z,3.52
2019-05-19T15:48:57.212Z,3.45
2019-05-19T15:51:34.819Z,3.87
2019-05-19T15:54:04.329Z,4.10
2019-05-19T15:56:37.011Z,3.55
2019-05-19T15:59:08.375Z,4.00
2019-05-19T16:01:39.720Z,3.37
2019-05-19T16:04:12.158Z,3.80
2019-05-19T16:06:44.093Z,3.80
2019-05-19T16:09:17.065Z,3.35
2019-05-19T16:11:48.276Z,3.90
2019-05-19T16:14:19.601Z,4.17
2019-05-19T16:16:50.959Z,4.10
2019-05-19T16:19:22.247Z,4.37
2019-05-19T16:21:53.632Z,4.45
2019-05-19T16:24:24.691Z,4.53
2019-05-19T16:26:56.081Z,4.92
2019-05-19T16:29:27.478Z,4.47
2019-05-19T16:31:59.159Z,4.83
2019-05-19T16:34:30.420Z,4.92
2019-05-19T16:37:01.903Z,4.40
2019-05-19T16:39:35.583Z,4.80
2019-05-19T16:42:07.364Z,5.15
2019-05-19T16:44:38.641Z,4.83
2019-05-19T16:47:10.002Z,5.10
2019-05-19T16:49:42.519Z,5.22
2019-05-19T16:52:13.760Z,5.08
2019-05-19T16:55:02.970Z,4.47
2019-05-19T16:57:35.984Z,4.45
2019-05-19T17:00:07.697Z,4.60
2019-05-19T17:02:39.843Z,5.12
2019-05-19T17:05:11.030Z,4.83
2019-05-19T17:07:42.083Z,5.15
2019-05-19T17:10:14.431Z,4.75
2019-05-19T17:12:45.247Z,4.50
2019-05-19T17:15:16.500Z,4.60
2019-05-19T17:17:49.065Z,4.90
2019-05-19T17:20:20.348Z,4.90
2019-05-19T17:22:51.400Z,5.50
2019-05-19T17:25:22.328Z,5.03
2019-05-19T17:27:53.140Z,4.87
2019-05-19T17:30:27.078Z,5.00
2019-05-19T17:32:58.201Z,4.78
2019-05-19T17:35:29.872Z,5.35
2019-05-19T17:38:00.756Z,5.15
2019-05-19T17:40:32.755Z,5.10
2019-05-19T17:43:04.305Z,4.70
2019-05-19T17:45:36.161Z,5.35
2019-05-19T17:48:09.930Z,5.35
2019-05-19T17:50:42.055Z,5.03
2019-05-19T17:53:13.472Z,5.22
2019-05-19T17:55:46.681Z,4.40
2019-05-19T17:58:17.954Z,5.08
2019-05-19T18:00:50.445Z,4.92
2019-05-19T18:03:22.260Z,4.83
2019-05-19T18:05:53.617Z,5.62
2019-05-19T18:08:25.145Z,5.30
2019-05-19T18:10:57.631Z,6.03
2019-05-19T18:13:29.077Z,7.20
2019-05-19T18:16:00.568Z,7.42
2019-05-19T18:18:32.045Z,6.42
2019-05-19T18:21:03.021Z,5.92
2019-05-19T18:23:34.043Z,5.60
2019-05-19T18:26:07.135Z,5.50
2019-05-19T18:28:37.374Z,5.37
2019-05-19T18:31:09.677Z,5.55
2019-05-19T18:33:40.706Z,5.00
2019-05-19T18:36:11.725Z,5.53
2019-05-19T18:38:42.765Z,5.87
2019-05-19T18:41:14.830Z,5.78
2019-05-19T18:43:45.595Z,11.70
2019-05-19T18:46:16.602Z,7.55
2019-05-19T18:48:47.744Z,5.90
2019-05-19T18:51:19.806Z,5.97
2019-05-19T18:53:51.051Z,5.33
2019-05-19T18:56:21.889Z,6.05
2019-05-19T18:58:52.744Z,5.37
2019-05-19T19:01:24.241Z,5.85
2019-05-19T19:03:55.304Z,5.87
2019-05-19T19:06:31.882Z,6.40
2019-05-19T19:09:03.056Z,6.15
2019-05-19T19:11:36.431Z,6.40
2019-05-19T19:14:07.472Z,6.83
2019-05-19T19:16:38.408Z,6.53
2019-05-19T19:19:09.200Z,6.45
2019-05-19T19:21:40.470Z,6.60
2019-05-19T19:24:11.527Z,6.72
2019-05-19T19:26:42.568Z,6.83
2019-05-19T19:29:13.913Z,7.28
2019-05-19T19:31:48.694Z,6.35
2019-05-19T19:34:17.326Z,7.22
2019-05-19T19:36:48.718Z,7.55
2019-05-19T19:39:20.474Z,6.92
2019-05-19T19:41:51.525Z,7.30
2019-05-19T19:44:24.024Z,7.35
2019-05-19T19:46:55.394Z,7.37
2019-05-19T19:49:26.438Z,6.92
2019-05-19T19:51:57.484Z,6.62
2019-05-19T19:54:28.928Z,7.28
2019-05-19T19:57:00.545Z,7.83
2019-05-19T19:59:31.933Z,7.55
2019-05-19T20:02:05.770Z,7.42
2019-05-19T20:04:36.746Z,6.92
2019-05-19T20:07:07.716Z,8.00
2019-05-19T20:09:38.757Z,7.20
2019-05-19T20:12:09.662Z,7.55
2019-05-19T20:14:40.536Z,7.00
2019-05-19T20:17:11.332Z,7.67
2019-05-19T20:19:42.157Z,7.20
2019-05-19T20:22:14.772Z,6.92
2019-05-19T20:24:45.611Z,7.85
2019-05-19T20:27:16.460Z,7.87
2019-05-19T20:29:47.328Z,7.28
2019-05-19T20:32:19.259Z,7.22
2019-05-19T20:34:51.633Z,7.53
2019-05-19T20:37:22.656Z,6.50
2019-05-19T20:39:53.591Z,7.58
2019-05-19T20:42:25.867Z,6.87
2019-05-19T20:44:57.107Z,7.30
2019-05-19T20:47:27.944Z,6.55
2019-05-19T20:50:00.832Z,6.90
2019-05-19T20:52:32.804Z,7.62
2019-05-19T20:55:04.547Z,7.12
2019-05-19T20:57:35.486Z,7.30
2019-05-19T21:00:07.262Z,6.83
2019-05-19T21:02:40.804Z,6.85
2019-05-19T21:05:11.880Z,6.78
2019-05-19T21:07:44.526Z,7.87
2019-05-19T21:10:15.395Z,6.70
2019-05-19T21:12:46.275Z,7.30
2019-05-19T21:15:17.783Z,7.03
2019-05-19T21:17:48.582Z,7.20
2019-05-19T21:20:19.622Z,6.85
2019-05-19T21:22:50.385Z,8.30
2019-05-19T21:25:21.322Z,7.12
2019-05-19T21:27:52.143Z,7.35
2019-05-19T21:30:22.928Z,6.10
2019-05-19T21:32:53.893Z,6.85
2019-05-19T21:35:24.777Z,6.90
2019-05-19T21:37:56.747Z,7.00
2019-05-19T21:40:27.603Z,7.25
2019-05-19T21:42:58.490Z,7.42
2019-05-19T21:45:29.617Z,7.22
2019-05-19T21:48:02.609Z,7.15
2019-05-19T21:50:33.664Z,7.08
2019-05-19T21:53:06.486Z,7.62
2019-05-19T21:55:37.500Z,6.55
2019-05-19T21:58:09.684Z,7.55
2019-05-19T22:00:41.732Z,7.30
2019-05-19T22:03:13.315Z,7.47
2019-05-19T22:05:52.841Z,7.30
2019-05-19T22:08:18.328Z,7.40
2019-05-19T22:10:49.696Z,8.35
2019-05-19T22:13:20.769Z,7.25
2019-05-19T22:15:52.001Z,7.95
2019-05-19T22:18:23.419Z,8.05
2019-05-19T22:20:54.769Z,6.47
2019-05-19T22:23:25.911Z,7.53
2019-05-19T22:25:56.753Z,6.95
2019-05-19T22:28:27.660Z,7.40
2019-05-19T22:30:58.439Z,6.67
2019-05-19T22:33:32.592Z,7.35
2019-05-19T22:36:04.390Z,7.33
2019-05-19T22:38:35.194Z,7.30
2019-05-19T22:41:06.031Z,7.22
2019-05-19T22:43:36.961Z,7.33
2019-05-19T22:46:07.936Z,8.38
2019-05-19T22:48:40.171Z,7.12
2019-05-19T22:51:11.246Z,7.60
2019-05-19T22:53:42.086Z,7.08
2019-05-19T22:56:13.539Z,8.03
2019-05-19T22:58:44.881Z,8.18
2019-05-19T23:01:16.197Z,7.05
2019-05-19T23:03:47.474Z,8.38
2019-05-19T23:06:18.612Z,7.67
2019-05-19T23:08:49.654Z,8.38
2019-05-19T23:11:20.855Z,8.20
2019-05-19T23:13:53.140Z,7.65
2019-05-19T23:16:24.622Z,7.67
2019-05-19T23:18:56.682Z,7.87
2019-05-19T23:21:27.656Z,8.18
2019-05-19T23:23:58.864Z,7.60
2019-05-19T23:26:30.547Z,8.15
2019-05-19T23:29:01.853Z,8.78
2019-05-19T23:31:33.115Z,8.25
2019-05-19T23:34:05.587Z,8.23
2019-05-19T23:36:36.730Z,8.60
2019-05-19T23:39:08.165Z,10.05
2019-05-19T23:41:40.292Z,9.58
2019-05-19T23:44:11.561Z,9.28
2019-05-19T23:46:44.616Z,8.95
2019-05-19T23:49:15.927Z,9.45
2019-05-19T23:51:46.864Z,9.30
2019-05-19T23:54:18.212Z,9.65
2019-05-19T23:56:49.715Z,9.30
2019-05-19T23:59:21.294Z,9.35
